• Join FlightAware (Why Join?)
  • Login
  • US Flag 
03:52AM EDT


 

Airport Tracker/Info


-or-


 

Live Flight TrackerFlight Track Log ✈ ASQ4518 ✈ 16-Jun-2013 ✈ KCLE - KDFW

Flight Track Log - Related Links

Times and Time Zones

All times are in EDT time to prevent confusion due to time zone crossing. See the ASQ4518 flight status page for this flight to view local times or setup timezone preferences in your user account.

Time Position Orientation Groundspeed Altitude Reporting Facility
EDT Latitude Longitude Course Direction KTS MPH feet Rate Location/Type
12:27PM 41.3919 -81.8783 242° Southwest 164 189 1,700  Level Cleveland Center
12:28PM 41.3767 -81.9225 245° Southwest 179 206 3,200 1,560 Climbing Cleveland Center
12:29PM 41.3592 -81.9911 251° West 228 262 4,400 1,560 Climbing Cleveland Center
12:30PM 41.2802 -82.2227 250° West  Level FlightAware Approximate
12:30PM 41.3311 -82.0653 243° Southwest 259 298 6,300  Level Cleveland Center
12:31PM 41.2449 -82.3503 248° West  Level FlightAware Approximate
12:31PM 41.3031 -82.1503 246° West 259 298 8,600  Level Cleveland Center
12:32PM 41.2071 -82.4765 248° West  Level FlightAware Approximate
12:32PM 41.2747 -82.2408 247° West 259 298 10,400  Level Cleveland Center
12:33PM 41.1584 -82.5956 242° Southwest  Level FlightAware Approximate
12:33PM 41.2397 -82.3422 245° Southwest 264 304 11,200  Level Cleveland Center
12:34PM 41.2006 -82.4542 245° Southwest 306 352 11,900 900 Climbing Cleveland Center
12:35PM 41.1608 -82.5689 245° Southwest 335 386 13,100 1,140 Climbing Cleveland Center
12:36PM 41.1214 -82.6836 245° Southwest 348 400 14,200 1,140 Climbing Cleveland Center
12:37PM 41.0942 -82.8067 254° West 353 406 15,400 1,140 Climbing Cleveland Center
12:38PM 41.0769 -82.9300 260° West 347 399 16,500 1,140 Climbing Cleveland Center
12:39PM 41.0597 -83.0533 260° West 347 399 17,700 1,140 Climbing Cleveland Center
12:40PM 41.0444 -83.1767 261° West 347 399 18,800 1,080 Climbing Cleveland Center
12:41PM 41.0272 -83.2969 259° West 347 399 19,900 1,080 Climbing Cleveland Center
12:42PM 41.0086 -83.4022 257° West 342 394 21,000 1,140 Climbing Indianapolis Center
12:43PM 40.9878 -83.5403 259° West 342 394 22,200 1,080 Climbing Indianapolis Center
12:44PM 40.9689 -83.6642 259° West 343 395 23,300 1,080 Climbing Indianapolis Center
12:45PM 40.9431 -83.7836 254° West 341 392 24,500 1,080 Climbing Indianapolis Center
12:46PM 40.8972 -83.8911 241° Southwest 336 387 25,600 960 Climbing Indianapolis Center
12:47PM 40.8514 -83.9994 241° Southwest 337 388 26,500 720 Climbing Indianapolis Center
12:48PM 40.8036 -84.1106 240° Southwest 346 398 27,200 720 Climbing Indianapolis Center
12:49PM 40.7631 -84.2269 245° Southwest 350 403 28,100 900 Climbing Indianapolis Center
12:50PM 40.7433 -84.3700 260° West 341 392 29,100 960 Climbing Indianapolis Center
12:51PM 40.7247 -84.4933 259° West 340 391 30,100 900 Climbing Indianapolis Center
12:52PM 40.7072 -84.6164 259° West 340 391 31,000 900 Climbing Indianapolis Center
12:53PM 40.6892 -84.7381 259° West 337 388 32,000 900 Climbing Indianapolis Center
12:54PM 40.6708 -84.8603 259° West 336 387 32,900 840 Climbing Indianapolis Center
12:55PM 40.6539 -84.9711 259° West 334 384 33,800 960 Climbing Indianapolis Center
12:56PM 40.6322 -85.1125 259° West 330 380 34,900 540 Climbing Indianapolis Center
12:57PM 40.6150 -85.2325 259° West 336 387 35,000  Climbing Indianapolis Center
12:58PM 40.5942 -85.3592 258° West 354 407 35,000  Level Indianapolis Center
12:59PM 40.5744 -85.4917 259° West 367 422 35,000  Level Indianapolis Center
01:01PM 40.5528 -85.6286 258° West 382 440 35,000 360 Level Indianapolis Center
01:02PM 40.5333 -85.7644 259° West 382 440 35,800 480 Climbing Indianapolis Center
01:03PM 40.5178 -85.9258 263° West 375 432 36,000 120 Climbing Indianapolis Center
01:03PM 40.5153 -85.9508 263° West 374 430 36,000  Level Chicago Center
01:04PM 40.5014 -86.0867 262° West 376 433 36,000  Level Chicago Center
01:05PM 40.4892 -86.2189 263° West 369 425 36,000  Level Chicago Center
01:06PM 40.4744 -86.3514 262° West 368 423 36,000  Level Chicago Center
01:07PM 40.4581 -86.5089 262° West 365 420 36,000  Level Chicago Center
01:08PM 40.4444 -86.6381 262° West 361 415 36,000  Level Chicago Center
01:09PM 40.4308 -86.7678 262° West 362 417 36,000  Level Chicago Center
01:10PM 40.4167 -86.8961 262° West 359 413 36,000  Level Chicago Center
01:11PM 40.4033 -87.0247 262° West 357 411 36,000  Level Chicago Center
01:12PM 40.3889 -87.1522 262° West 357 411 36,000  Level Chicago Center
01:13PM 40.3717 -87.3050 262° West 355 409 36,000  Level Chicago Center
01:14PM 40.3575 -87.4333 262° West 357 411 36,000  Level Chicago Center
01:15PM 40.3417 -87.5708 261° West 358 412 36,000  Level Chicago Center
01:16PM 40.3267 -87.7025 262° West 364 419 36,000  Level Chicago Center
01:17PM 40.3111 -87.8344 261° West 366 421 36,000  Level Chicago Center
01:18PM 40.2961 -87.9661 262° West 368 423 36,000  Level Chicago Center
01:19PM 40.2800 -88.0986 261° West 369 425 36,000  Level Chicago Center
01:20PM 40.2619 -88.2583 262° West 372 428 36,000  Level Chicago Center
01:21PM 40.2456 -88.3903 261° West 369 425 36,000  Level Chicago Center
01:24PM 40.2114 -88.6656 261° West 375 432 36,000  Level Chicago Center
01:25PM 40.1950 -88.7994 261° West 374 430 36,000  Level Chicago Center
01:26PM 40.1775 -88.9331 260° West 371 427 36,000  Level Chicago Center
01:27PM 40.1603 -89.0678 261° West 374 430 36,000  Level Chicago Center
01:28PM 40.1425 -89.2039 260° West 378 435 36,000  Level Chicago Center
01:29PM 40.1219 -89.3664 261° West 376 433 36,000  Level Chicago Center
01:29PM 40.1139 -89.4214 259° West 377 434 36,000  Level Kansas City Center
01:30PM 40.0961 -89.5572 260° West 376 433 36,000  Level Kansas City Center
01:31PM 40.0786 -89.6947 261° West 380 437 36,000  Level Kansas City Center
01:32PM 40.0600 -89.8303 260° West 380 437 36,000  Level Kansas City Center
01:33PM 40.0414 -89.9667 260° West 380 437 36,000  Level Kansas City Center
01:34PM 40.0228 -90.1011 260° West 378 435 36,000  Level Kansas City Center
01:35PM 40.0003 -90.2639 260° West 378 435 36,000  Level Kansas City Center
01:36PM 39.9817 -90.3989 260° West 378 435 36,000  Level Kansas City Center
01:37PM 39.9633 -90.5344 260° West 379 436 36,000  Level Kansas City Center
01:38PM 39.9433 -90.6675 259° West 376 433 36,000  Level Kansas City Center
01:40PM 39.9247 -90.7997 260° West 373 429 36,000  Level Kansas City Center
01:41PM 39.9061 -90.9328 260° West 373 429 36,000  Level Kansas City Center
01:42PM 39.8864 -91.0667 259° West 372 428 36,000  Level Kansas City Center
01:43PM 39.8672 -91.1972 259° West 370 426 36,000  Level Kansas City Center
01:44PM 39.8433 -91.3522 259° West 369 425 36,000  Level Kansas City Center
01:45PM 39.8231 -91.4853 259° West 372 428 36,000  Level Kansas City Center
01:46PM 39.8036 -91.6156 259° West 371 427 36,000  Level Kansas City Center
01:47PM 39.7667 -91.7394 249° West 373 429 36,000  Level Kansas City Center
01:48PM 39.6889 -91.8358 224° Southwest 384 442 36,000  Level Kansas City Center
01:49PM 39.5939 -91.9497 223° Southwest 387 445 36,000  Level Kansas City Center
01:50PM 39.5158 -92.0447 223° Southwest 388 447 36,000  Level Kansas City Center
01:51PM 39.4375 -92.1378 223° Southwest 385 443 36,000  Level Kansas City Center
01:52PM 39.3575 -92.2328 223° Southwest 389 448 36,000  Level Kansas City Center
01:53PM 39.2781 -92.3294 223° Southwest 393 452 36,000  Level Kansas City Center
01:54PM 39.1878 -92.4353 222° Southwest 394 453 36,000  Level Kansas City Center
01:55PM 39.1075 -92.5300 222° Southwest 393 452 36,000  Level Kansas City Center
01:56PM 39.0258 -92.6264 223° Southwest 395 455 36,000  Level Kansas City Center
01:57PM 38.9289 -92.7408 223° Southwest 395 455 36,000  Level Kansas City Center
01:58PM 38.8483 -92.8361 223° Southwest 395 455 36,000  Level Kansas City Center
01:59PM 38.7669 -92.9306 222° Southwest 395 455 36,000  Level Kansas City Center
02:00PM 38.6864 -93.0247 222° Southwest 393 452 36,000  Level Kansas City Center
02:01PM 38.6058 -93.1186 222° Southwest 394 453 36,000  Level Kansas City Center
02:02PM 38.5244 -93.2128 222° Southwest 394 453 36,000  Level Kansas City Center
02:03PM 38.4261 -93.3261 222° Southwest 396 456 36,000  Level Kansas City Center
02:04PM 38.3442 -93.4208 222° Southwest 397 457 36,000  Level Kansas City Center
02:05PM 38.2628 -93.5144 222° Southwest 397 457 36,000  Level Kansas City Center
02:06PM 38.1800 -93.6094 222° Southwest 399 459 36,000  Level Kansas City Center
02:07PM 38.0953 -93.7044 221° Southwest 404 465 36,000  Level Kansas City Center
02:08PM 38.0131 -93.7975 222° Southwest 401 461 36,000  Level Kansas City Center
02:09PM 37.9139 -93.9111 222° Southwest 401 461 36,000  Level Kansas City Center
02:11PM 37.8297 -94.0039 221° Southwest 402 463 36,000  Level Kansas City Center
02:12PM 37.7467 -94.0986 222° Southwest 402 463 36,000  Level Kansas City Center
02:13PM 37.6661 -94.1869 221° Southwest 403 464 36,000  Level Kansas City Center
02:14PM 37.5658 -94.2994 222° Southwest 403 464 36,000  Level Kansas City Center
02:15PM 37.4817 -94.3939 222° Southwest 405 466 36,000  Level Kansas City Center
02:16PM 37.3978 -94.4886 222° Southwest 404 465 36,000  Level Kansas City Center
02:17PM 37.3128 -94.5819 221° Southwest 404 465 36,000  Level Kansas City Center
02:18PM 37.2275 -94.6753 221° Southwest 405 466 36,000  Level Kansas City Center
02:19PM 37.1425 -94.7689 221° Southwest 405 466 36,000  Level Kansas City Center
02:20PM 37.0572 -94.8625 221° Southwest 407 468 36,000  Level Kansas City Center
02:21PM 36.9550 -94.9739 221° Southwest 406 467 36,000  Level Kansas City Center
02:22PM 36.8686 -95.0669 221° Southwest 408 470 36,000  Level Kansas City Center
02:23PM 36.7828 -95.1606 221° Southwest 409 471 36,000  Level Kansas City Center
02:24PM 36.6969 -95.2536 221° Southwest 409 471 36,000  Level Kansas City Center
02:25PM 36.6106 -95.3467 221° Southwest 411 473 36,000  Level Kansas City Center
02:26PM 36.5250 -95.4383 221° Southwest 411 473 36,000  Level Kansas City Center
02:27PM 36.4175 -95.5494 220° Southwest 415 478 36,000  Level Kansas City Center
02:28PM 36.3306 -95.6456 222° Southwest 421 484 36,000  Level Kansas City Center
02:29PM 36.2414 -95.7400 221° Southwest 421 484 36,000  Level Kansas City Center
02:30PM 36.1319 -95.7678 192° South 439 505 36,000  Level Kansas City Center
02:31PM 35.9869 -95.7192 165° South 451 519 36,000  Level Kansas City Center
02:32PM 35.8656 -95.6789 165° South 452 520 36,000  Level Kansas City Center
02:33PM 35.7447 -95.6403 165° South 451 519 36,000 -300 Level Kansas City Center
02:34PM 35.6233 -95.5994 165° South 451 519 35,500 -900 Descending Kansas City Center
02:35PM 35.5094 -95.5647 166° South 453 521 34,400 -1,200 Descending Fort Worth Center
02:36PM 35.3942 -95.5267 165° South 447 514 33,300 -720 Descending Fort Worth Center
02:37PM 35.2914 -95.4958 166° South 436 502 33,000 -180 Descending Fort Worth Center
02:38PM 35.1742 -95.4606 166° South 436 502 33,000  Level Fort Worth Center
02:39PM 35.0589 -95.4225 165° South 436 502 33,000  Level Fort Worth Center
02:40PM 34.9414 -95.3847 165° South 436 502 33,000  Level Fort Worth Center
02:41PM 34.8242 -95.3647 172° South 436 502 33,000  Level Fort Worth Center
02:42PM 34.7186 -95.4153 201° Southwest 400 460 33,000  Level Fort Worth Center
02:43PM 34.6197 -95.4883 211° Southwest 400 460 33,000  Level Fort Worth Center
02:44PM 34.5144 -95.5611 210° Southwest 417 480 33,000  Level Fort Worth Center
02:45PM 34.3986 -95.6367 208° Southwest 430 495 33,000 -600 Level Fort Worth Center
02:46PM 34.2953 -95.7092 210° Southwest 435 501 31,900 -2,100 Descending Fort Worth Center
02:47PM 34.1919 -95.7789 209° Southwest 435 501 28,900 -2,760 Descending Fort Worth Center
02:48PM 34.1031 -95.8383 209° Southwest 441 507 26,400 -3,000 Descending Fort Worth Center
02:49PM 33.9872 -95.9181 210° Southwest 446 513 22,900 -3,000 Descending Fort Worth Center
02:50PM 33.8836 -95.9850 208° Southwest 438 504 20,500 -2,580 Descending Fort Worth Center
02:51PM 33.7717 -96.0592 209° Southwest 426 490 17,800 -2,400 Descending Fort Worth Center
02:52PM 33.6764 -96.1231 209° Southwest 410 472 15,700 -2,400 Descending Fort Worth Center
02:53PM 33.5831 -96.1842 209° Southwest 391 450 13,100 -2,100 Descending Fort Worth Center
02:54PM 33.4894 -96.2353 204° Southwest 385 443 11,500 -1,140 Descending Fort Worth Center
02:55PM 33.4172 -96.3036 218° Southwest 354 407 10,900 -300 Descending Fort Worth Center
02:56PM 33.3614 -96.3764 227° Southwest 314 361 10,900 -360 Level Fort Worth Center
02:57PM 33.3308 -96.4611 247° West 286 329 10,200 -900 Descending Fort Worth Center
02:58PM 33.3000 -96.5333 243° Southwest 283 326 9,300 -1,080 Descending Dallas / Fort Worth TRACON
02:59PM 33.2667 -96.6167 244° Southwest 271 312 8,200 -1,140 Descending Dallas / Fort Worth TRACON
03:00PM 33.2333 -96.6833 239° Southwest 250 288 7,100 -1,200 Descending Dallas / Fort Worth TRACON
03:01PM 33.2000 -96.7667 244° Southwest 264 304 5,900 -1,080 Descending Dallas / Fort Worth TRACON
03:02PM 33.1667 -96.8333 239° Southwest 225 259 5,000 -600 Descending Dallas / Fort Worth TRACON
03:03PM 33.1333 -96.9000 239° Southwest 234 269 4,800 -720 Descending Dallas / Fort Worth TRACON
03:04PM 33.0833 -96.9500 220° Southwest 230 265 3,600 -1,260 Descending Dallas / Fort Worth TRACON
03:05PM 33.0500 -97.0000 232° Southwest 227 261 2,300 -1,320 Descending Dallas / Fort Worth TRACON